Flight Track Log - Related Links

Times and Time Zones

All times are in EST time to prevent confusion due to time zone crossing. See the N500CD flight status page for this flight to view local times or setup timezone preferences in your user account.

Time Position Orientation Groundspeed Altitude Reporting Facility
EST Latitude Longitude Course Direction KTS MPH feet Rate Location/Type
Fri 07:41:04 PM 25.9142 -80.2317 82° East 152 175 2,200  Level Miami Center
Fri 07:42:06 PM 25.9475 -80.2303 North 191 220 3,800 927 Climbing Miami Center
Fri 07:43:07 PM 25.9694 -80.2794 296° West 203 234 4,100 836 Climbing Miami Center
Fri 07:44:08 PM 25.9806 -80.3350 283° West 156 180 5,500 1,221 Climbing Miami Center
Fri 07:45:00 PM 25.9881 -80.3747 282° West 164 189 6,400 1,393 Climbing Miami Center
Fri 07:46:00 PM 26.0031 -80.4353 285° West 184 212 8,100 1,550 Climbing Miami Center
Fri 07:47:00 PM 26.0203 -80.5050 285° West 212 244 9,500 1,550 Climbing Miami Center
Fri 07:48:00 PM 26.0392 -80.5819 285° West 239 275 11,200 1,950 Climbing Miami Center
Fri 07:49:00 PM 26.0819 -80.6294 315° West 231 266 13,400 1,400 Climbing Miami Center
Fri 07:50:00 PM 26.1308 -80.6772 319° Northwest 226 260 14,000 700 Climbing Miami Center
Fri 07:51:00 PM 26.1897 -80.7369 318° Northwest 255 293 14,800 1,350 Climbing Miami Center
Fri 07:52:00 PM 26.2406 -80.7919 316° Northwest 262 302 16,700 1,800 Climbing Miami Center
Fri 07:53:00 PM 26.3042 -80.8336 330° Northwest 249 287 18,400 1,700 Climbing Miami Center
Fri 07:54:00 PM 26.3533 -80.8653 330° Northwest 231 266 20,100 1,800 Climbing Miami Center
Fri 07:55:00 PM 26.4086 -80.9042 328° Northwest 224 258 22,000 1,650 Climbing Miami Center
Fri 07:56:00 PM 26.4556 -80.9406 325° Northwest 213 245 23,400 1,000 Climbing Miami Center
Fri 07:57:00 PM 26.5050 -80.9725 330° Northwest 207 238 24,000 300 Climbing Miami Center
Fri 07:58:00 PM 26.5767 -81.0214 329° Northwest 256 295 24,000  Level Miami Center
Fri 07:59:00 PM 26.6461 -81.0703 328° Northwest 292 336 24,000  Level Miami Center
Fri 08:00:00 PM 26.7219 -81.1219 329° Northwest 307 353 24,000  Level Miami Center
Fri 08:01:00 PM 26.7894 -81.1686 328° Northwest 317 365 24,000  Level Miami Center
Fri 08:02:00 PM 26.8650 -81.2225 328° Northwest 317 365 24,000  Level Miami Center
Fri 08:03:00 PM 26.9489 -81.2817 328° Northwest 317 365 24,000  Level Miami Center
Fri 08:04:00 PM 27.0222 -81.3381 326° Northwest 317 365 24,000  Level Miami Center
Fri 08:05:00 PM 27.1000 -81.3922 328° Northwest 323 372 24,000  Level Miami Center
Fri 08:06:00 PM 27.1694 -81.4394 329° Northwest 323 372 24,000  Level Miami Center
Fri 08:07:00 PM 27.2469 -81.4939 328° Northwest 323 372 24,000  Level Miami Center
Fri 08:08:00 PM 27.3328 -81.5511 329° Northwest 323 372 24,000  Level Miami Center
Fri 08:09:00 PM 27.4106 -81.6056 328° Northwest 323 372 24,000  Level Miami Center
Fri 08:10:00 PM 27.4858 -81.6625 326° Northwest 323 372 24,000  Level Miami Center
Fri 08:11:00 PM 27.5572 -81.7100 329° Northwest 323 372 24,000  Level Miami Center
Fri 08:12:00 PM 27.6347 -81.7672 327° Northwest 323 372 24,000  Level Miami Center
Fri 08:14:07 PM 27.8100 -81.8861 329° Northwest 324 373 24,000  Level Jacksonville Center
Fri 08:15:07 PM 27.8897 -81.9417 328° Northwest 329 379 24,000  Level Jacksonville Center
Fri 08:16:07 PM 27.9653 -81.9997 326° Northwest 329 379 24,000  Level Jacksonville Center
Fri 08:17:07 PM 28.0572 -82.0247 347° North 323 372 24,000  Level Jacksonville Center
Fri 08:18:07 PM 28.1556 -82.0381 353° North 329 379 24,000  Level Jacksonville Center
Fri 08:19:07 PM 28.2514 -82.0536 352° North 341 392 24,000  Level Jacksonville Center
Fri 08:20:07 PM 28.3456 -82.0669 353° North 341 392 24,000  Level Jacksonville Center
Fri 08:21:07 PM 28.4417 -82.0806 353° North 341 392 24,000 -450 Level Jacksonville Center
Fri 08:22:07 PM 28.5378 -82.0961 352° North 347 399 23,100 -1,200 Descending Jacksonville Center
Fri 08:23:07 PM 28.6422 -82.1119 352° North 360 414 21,600 -1,200 Descending Jacksonville Center
Fri 08:24:02 PM 28.7361 -82.1300 350° North 380 437 20,800 -900 Descending Jacksonville Center
Fri 08:24:07 PM 28.7444 -82.1253 26° Northeast 365 420 20,700 -3,138 Descending Jacksonville Center
Fri 08:25:07 PM 28.8364 -82.1411 351° North 360 414 17,400 -3,246 Descending Jacksonville Center
Fri 08:25:08 PM 28.8344 -82.1461 246° West 327 376 17,400 -3,000 Level Jacksonville Center
Fri 08:26:07 PM 28.9200 -82.1572 354° North 335 386 14,400 -3,049 Descending Jacksonville Center
Fri 08:26:09 PM 28.9200 -82.1594 270° West 305 351 14,300 -2,500 Descending Jacksonville Center
Fri 08:27:07 PM 28.9953 -82.1661 356° North 291 335 11,900 -2,300 Descending Jacksonville Center
Fri 08:27:09 PM 28.9972 -82.1686 312° West 270 311 12,000 -1,900 Climbing Jacksonville Center
Fri 08:28:07 PM 29.0703 -82.1797 352° North 271 312 10,000 -1,869 Descending Jacksonville Center
Fri 08:28:10 PM 29.0767 -82.1822 341° North 263 303 10,100  Climbing Jacksonville Center
Fri 08:29:11 PM 29.1478 -82.2222 334° Northwest 295 339 10,000 -645 Descending Jacksonville Center
Fri 08:30:11 PM 29.2192 -82.2619 334° Northwest 288 331 8,800 -1,140 Descending Jacksonville Center
Fri 08:31:12 PM 29.2903 -82.2997 335° Northwest 277 319 7,700 -1,448 Descending Jacksonville Center
Fri 08:32:07 PM 29.3489 -82.3375 331° Northwest 280 322 6,000 -1,770 Descending Jacksonville Center
Fri 08:32:13 PM 29.3550 -82.3447 314° West 272 313 5,900 -1,200 Descending Jacksonville Center
Fri 08:33:07 PM 29.4178 -82.3728 339° North 280 322 4,800 -1,182 Descending Jacksonville Center
Fri 08:33:19 PM 29.4283 -82.3822 322° Northwest 265 305 4,600 -1,075 Descending Jacksonville Center
Fri 08:34:14 PM 29.4889 -82.4153 335° Northwest 261 300 3,600 -818 Descending Jacksonville Center
Fri 08:35:09 PM 29.5475 -82.4533 331° Northwest 249 287 3,100 -298 Descending Jacksonville Center
Fri 08:36:15 PM 29.6042 -82.4817 337° Northwest 197 227 3,000 -94 Descending Jacksonville Center
Fri 08:37:16 PM 29.6583 -82.4958 347° North 204 235 2,900 -496 Descending Jacksonville Center
Fri 08:38:16 PM 29.7125 -82.4883 North 174 200 2,000 -545 Descending Jacksonville Center
Fri 08:39:17 PM 29.7231 -82.4500 72° East 142 163 1,800 -49 Descending Jacksonville Center
Fri 08:40:18 PM 29.7103 -82.4072 109° East 137 158 1,900 -47 Climbing Jacksonville Center
Fri 08:41:24 PM 29.7039 -82.3714 102° East 92 106 1,700 -331 Descending Jacksonville Center
Fri 08:42:25 PM 29.6975 -82.3403 103° East 89 102 1,200 -492 Descending Jacksonville Center
Fri 08:43:26 PM 29.6953 -82.3067 94° East 106 122 700 -492 Descending Jacksonville Center
Fri 08:45:00 PM 29.6833 -82.2667 95° East  Level FlightAware Approximate

Login

Don't have an account? Register now (free) for customized features, flight alerts, and more!